Time;durP1;ratioP1;P1;durP2;ratioP2;P2;SDS_P1;SDS_P2;PMS_P1;PMS_P2;Temp;Humidity;BMP_temperature;BMP_pressure;BME280_temperature;BME280_humidity;BME280_pressure;Samples;Min_cycle;Max_cycle;Signal;HPM_P1;HPM_P2
2022/11/06 21:10:17;;;;;;;23.67;19.50;;;6.80;99.90;;;;;;5153053;27;20790;-77
2022/11/06 21:12:43;;;;;;;21.37;18.47;;;6.70;99.90;;;;;;5134261;27;20179;-76
2022/11/06 21:15:08;;;;;;;22.37;18.70;;;6.80;99.90;;;;;;5133983;27;20225;-77
2022/11/06 21:17:34;;;;;;;22.10;19.73;;;6.80;99.90;;;;;;5152495;27;20174;-78
2022/11/06 21:20:00;;;;;;;20.83;18.63;;;6.90;99.90;;;;;;5152154;27;20186;-77
2022/11/06 21:22:25;;;;;;;20.98;18.73;;;7.00;99.90;;;;;;5134224;27;20219;-77
2022/11/06 21:24:51;;;;;;;21.52;18.98;;;7.00;99.90;;;;;;5114157;28;20241;-77
2022/11/06 21:28:01;;;;;;;22.30;19.48;;;7.00;99.90;;;;;;5113429;28;20167;-77
2022/11/06 21:30:32;;;;;;;22.27;19.05;;;6.90;99.90;;;;;;5113151;28;20258;-77
2022/11/06 21:33:04;;;;;;;20.92;18.27;;;6.80;99.90;;;;;;5131358;28;20176;-77
2022/11/06 21:35:52;;;;;;;20.55;18.35;;;6.60;99.90;;;;;;5113503;28;20191;-77
2022/11/06 21:38:21;;;;;;;21.02;18.27;;;6.50;99.90;;;;;;5112773;28;20428;-77
2022/11/06 21:41:28;;;;;;;22.52;19.77;;;6.50;99.90;;;;;;5113352;28;20675;-77
2022/11/06 21:44:45;;;;;;;23.05;20.02;;;6.40;99.90;;;;;;5113032;28;20167;-77
2022/11/06 21:47:10;;;;;;;26.77;20.48;;;6.30;99.90;;;;;;5113690;28;20259;-77
2022/11/06 21:49:36;;;;;;;27.57;20.80;;;6.40;99.90;;;;;;5113757;28;20196;-77
2022/11/06 21:57:51;;;;;;;23.83;18.90;;;6.40;99.90;;;;;;5131339;28;20201;-77
2022/11/06 22:00:20;;;;;;;21.65;19.42;;;6.40;99.90;;;;;;5131413;28;20156;-77
2022/11/06 22:02:46;;;;;;;27.35;24.48;;;6.50;99.90;;;;;;5132142;28;20250;-78
2022/11/06 22:05:12;;;;;;;33.85;30.15;;;6.60;99.90;;;;;;5131017;28;20222;-77
2022/11/06 22:07:45;;;;;;;37.08;32.47;;;6.70;99.90;;;;;;5112501;28;20241;-77
2022/11/06 22:10:11;;;;;;;27.95;23.92;;;6.70;99.90;;;;;;5112815;28;20207;-77
2022/11/06 22:12:51;;;;;;;22.90;20.48;;;6.70;99.90;;;;;;5113064;28;20175;-78
2022/11/06 22:15:17;;;;;;;21.95;19.58;;;6.60;99.90;;;;;;5112970;28;20210;-77
2022/11/06 22:17:42;;;;;;;22.08;19.60;;;6.40;99.90;;;;;;5112613;28;20168;-78
2022/11/06 22:20:08;;;;;;;24.10;19.52;;;6.30;99.90;;;;;;5106789;28;20207;-78
2022/11/06 22:22:37;;;;;;;22.80;20.20;;;6.20;99.90;;;;;;5099012;28;20172;-78
2022/11/06 22:28:24;;;;;;;22.98;20.35;;;5.90;99.90;;;;;;5116838;28;20199;-78
2022/11/06 22:30:50;;;;;;;23.60;20.47;;;5.80;99.90;;;;;;5098479;28;20176;-78
2022/11/06 22:33:15;;;;;;;24.87;21.50;;;5.70;99.90;;;;;;5098602;28;20195;-77
2022/11/06 22:35:41;;;;;;;26.20;22.37;;;5.60;99.90;;;;;;5098365;28;20252;-78
2022/11/06 22:38:09;;;;;;;23.10;20.57;;;5.60;99.90;;;;;;5098826;28;20220;-77
2022/11/06 22:40:34;;;;;;;24.87;21.07;;;5.50;99.90;;;;;;5098492;28;20276;-78
2022/11/06 22:46:22;;;;;;;23.60;20.30;;;5.40;99.90;;;;;;5116293;28;20275;-78
2022/11/06 22:48:49;;;;;;;23.50;20.67;;;5.50;99.90;;;;;;5098382;28;20244;-78
2022/11/06 22:51:18;;;;;;;23.80;20.07;;;5.60;99.90;;;;;;5116405;28;20184;-78
2022/11/06 22:53:44;;;;;;;21.37;18.47;;;5.70;99.90;;;;;;5098358;28;20181;-77
2022/11/06 22:56:13;;;;;;;21.67;19.27;;;5.80;99.90;;;;;;5097907;28;20214;-78
2022/11/06 22:58:39;;;;;;;22.53;18.60;;;5.80;99.90;;;;;;5115988;28;20200;-77
2022/11/06 23:01:24;;;;;;;21.23;18.60;;;5.70;99.90;;;;;;5097846;28;20635;-77
2022/11/06 23:03:55;;;;;;;21.77;19.43;;;5.60;99.90;;;;;;5097825;28;20168;-77
2022/11/06 23:06:22;;;;;;;23.13;19.93;;;5.50;99.90;;;;;;5098095;28;20202;-77
2022/11/06 23:08:48;;;;;;;22.97;19.87;;;5.60;99.90;;;;;;5116060;28;20203;-78
2022/11/06 23:11:16;;;;;;;21.47;19.17;;;5.70;99.90;;;;;;5098377;28;20213;-78
2022/11/06 23:13:42;;;;;;;21.27;19.07;;;5.80;99.90;;;;;;5098176;28;20641;-78
2022/11/06 23:16:10;;;;;;;26.10;20.13;;;5.80;99.90;;;;;;5098427;28;20227;-77
2022/11/06 23:18:36;;;;;;;23.47;19.47;;;5.90;99.90;;;;;;5115760;28;20648;-78
2022/11/06 23:21:18;;;;;;;22.87;18.93;;;5.90;99.90;;;;;;5098045;28;20207;-83
2022/11/06 23:24:08;;;;;;;21.13;18.87;;;6.00;99.90;;;;;;5115971;28;20164;-77
2022/11/06 23:27:12;;;;;;;22.67;19.73;;;6.10;99.90;;;;;;5115830;28;20164;-76
2022/11/06 23:29:38;;;;;;;20.93;18.63;;;6.20;99.90;;;;;;5116410;28;20249;-83
2022/11/06 23:32:04;;;;;;;20.80;18.45;;;6.40;99.90;;;;;;5096902;28;20188;-77
2022/11/06 23:34:30;;;;;;;23.63;17.93;;;6.50;99.90;;;;;;5098367;28;20204;-78
2022/11/06 23:36:55;;;;;;;20.47;18.00;;;6.50;99.90;;;;;;5098082;28;20176;-78
2022/11/06 23:39:21;;;;;;;19.92;17.92;;;6.60;99.90;;;;;;5097532;28;20212;-78
2022/11/06 23:41:46;;;;;;;21.30;18.25;;;6.60;99.90;;;;;;5115535;28;20217;-78
2022/11/06 23:47:05;;;;;;;19.55;17.55;;;6.70;99.90;;;;;;5098855;28;20186;-78
2022/11/06 23:49:31;;;;;;;22.02;18.65;;;6.70;99.90;;;;;;5115654;28;20180;-78
2022/11/06 23:51:57;;;;;;;20.98;18.88;;;6.70;99.90;;;;;;5097471;28;20218;-78
2022/11/06 23:54:35;;;;;;;21.48;19.00;;;6.80;99.90;;;;;;5115588;28;20172;-78
2022/11/06 23:57:01;;;;;;;20.40;18.20;;;6.80;99.90;;;;;;5115305;28;20164;-78
2022/11/06 23:59:26;;;;;;;20.48;18.38;;;6.80;99.90;;;;;;5096620;28;20231;-78
